createdAt,value
2018-08-28T00:00:41.425Z,17.91
2018-08-28T00:01:41.416Z,17.94
2018-08-28T00:02:41.393Z,17.94
2018-08-28T00:03:41.377Z,17.92
2018-08-28T00:04:41.374Z,17.91
2018-08-28T00:05:41.361Z,17.84
2018-08-28T00:06:41.339Z,17.78
2018-08-28T00:07:41.321Z,17.73
2018-08-28T00:08:41.308Z,17.64
2018-08-28T00:09:41.299Z,17.53
2018-08-28T00:10:41.275Z,17.53
2018-08-28T00:11:41.270Z,17.54
2018-08-28T00:12:41.253Z,17.43
2018-08-28T00:13:41.235Z,17.29
2018-08-28T00:14:41.224Z,17.18
2018-08-28T00:15:41.212Z,17.13
2018-08-28T00:16:41.189Z,17.06
2018-08-28T00:17:41.174Z,16.92
2018-08-28T00:18:41.161Z,16.85
2018-08-28T00:19:41.146Z,16.81
2018-08-28T00:20:41.139Z,16.58
2018-08-28T00:21:41.116Z,16.48
2018-08-28T00:22:41.100Z,16.44
2018-08-28T00:23:41.087Z,16.31
2018-08-28T00:24:41.072Z,16.25
2018-08-28T00:25:41.067Z,16.03
2018-08-28T00:26:41.045Z,16.07
2018-08-28T00:27:41.028Z,16.01
2018-08-28T00:28:41.010Z,15.86
2018-08-28T00:29:40.994Z,15.82
2018-08-28T00:30:40.984Z,15.67
2018-08-28T00:31:40.965Z,15.56
2018-08-28T00:32:40.956Z,15.59
2018-08-28T00:33:40.933Z,15.48
2018-08-28T00:34:40.919Z,15.48
2018-08-28T00:35:40.904Z,15.31
2018-08-28T00:36:40.898Z,15.27
2018-08-28T00:37:40.873Z,15.23
2018-08-28T00:38:40.858Z,15.23
2018-08-28T00:39:40.845Z,15.09
2018-08-28T00:40:40.824Z,15.05
2018-08-28T00:41:40.811Z,15.15
2018-08-28T00:42:40.795Z,14.99
2018-08-28T00:43:40.775Z,14.94
2018-08-28T00:44:40.763Z,14.95
2018-08-28T00:45:40.744Z,14.87
2018-08-28T00:46:40.734Z,14.86
2018-08-28T00:47:40.719Z,14.74
2018-08-28T00:48:40.698Z,14.67
2018-08-28T00:49:40.698Z,14.62
2018-08-28T00:50:40.663Z,14.53
2018-08-28T00:51:40.650Z,14.54
2018-08-28T00:52:40.637Z,14.38
2018-08-28T00:53:40.619Z,14.37
2018-08-28T00:54:40.599Z,14.42
2018-08-28T00:55:40.583Z,14.32
2018-08-28T00:56:40.585Z,14.31
2018-08-28T00:57:40.555Z,14.17
2018-08-28T00:58:40.534Z,14.13
2018-08-28T00:59:40.516Z,14.07
2018-08-28T01:00:40.506Z,14.09
2018-08-28T01:01:40.490Z,14.09
2018-08-28T01:02:40.474Z,14.09
2018-08-28T01:03:40.451Z,13.98
2018-08-28T01:04:40.435Z,13.95
2018-08-28T01:05:40.413Z,13.84
2018-08-28T01:06:40.404Z,13.94
2018-08-28T01:07:40.380Z,13.99
2018-08-28T01:08:40.377Z,14.06
2018-08-28T01:09:40.346Z,13.92
2018-08-28T01:10:40.329Z,13.89
2018-08-28T01:11:40.326Z,13.81
2018-08-28T01:12:40.297Z,13.79
2018-08-28T01:13:40.294Z,13.70
2018-08-28T01:14:40.322Z,13.67
2018-08-28T01:15:40.256Z,13.61
2018-08-28T01:16:40.226Z,13.55
2018-08-28T01:17:40.221Z,13.56
2018-08-28T01:18:40.213Z,13.55
2018-08-28T01:19:40.181Z,13.49
2018-08-28T01:20:40.162Z,13.46
2018-08-28T01:21:40.149Z,13.43
2018-08-28T01:22:40.129Z,13.29
2018-08-28T01:23:40.113Z,13.37
2018-08-28T01:24:40.097Z,13.24
2018-08-28T01:25:40.081Z,13.29
2018-08-28T01:26:40.068Z,13.24
2018-08-28T01:27:40.043Z,13.21
2018-08-28T01:28:40.026Z,13.24
2018-08-28T01:29:40.004Z,13.21
2018-08-28T01:30:39.988Z,13.32
2018-08-28T01:31:39.976Z,13.25
2018-08-28T01:32:39.950Z,13.22
2018-08-28T01:33:39.937Z,13.18
2018-08-28T01:34:39.925Z,13.14
2018-08-28T01:35:39.896Z,13.07
2018-08-28T01:36:39.883Z,13.07
2018-08-28T01:37:39.871Z,13.02
2018-08-28T01:38:39.841Z,12.95
2018-08-28T01:39:39.835Z,12.99
2018-08-28T01:40:39.810Z,12.95
2018-08-28T01:41:39.790Z,12.89
2018-08-28T01:42:39.784Z,12.96
2018-08-28T01:43:39.761Z,12.81
2018-08-28T01:44:39.755Z,12.88
2018-08-28T01:45:39.727Z,12.79
2018-08-28T01:46:39.701Z,12.81
2018-08-28T01:47:39.695Z,12.79
2018-08-28T01:48:39.669Z,12.78
2018-08-28T01:49:39.653Z,12.78
2018-08-28T01:50:39.627Z,12.66
2018-08-28T01:51:39.617Z,12.70
2018-08-28T01:52:39.600Z,12.62
2018-08-28T01:53:39.576Z,12.62
2018-08-28T01:54:39.563Z,12.64
2018-08-28T01:55:39.564Z,12.62
2018-08-28T01:56:39.523Z,12.54
2018-08-28T01:57:39.506Z,12.56
2018-08-28T01:58:39.490Z,12.54
2018-08-28T01:59:39.465Z,12.54
2018-08-28T02:00:39.456Z,12.56
2018-08-28T02:01:39.436Z,12.49
2018-08-28T02:02:39.417Z,12.54
2018-08-28T02:03:39.401Z,12.41
2018-08-28T02:04:39.375Z,12.33
2018-08-28T02:05:39.362Z,12.31
2018-08-28T02:06:39.340Z,12.24
2018-08-28T02:07:39.327Z,12.21
2018-08-28T02:08:39.303Z,12.24
2018-08-28T02:09:39.289Z,12.20
2018-08-28T02:10:39.270Z,12.20
2018-08-28T02:11:39.255Z,12.16
2018-08-28T02:12:39.236Z,12.16
2018-08-28T02:13:39.213Z,12.21
2018-08-28T02:14:39.201Z,12.23
2018-08-28T02:15:39.192Z,12.15
2018-08-28T02:16:39.162Z,12.15
2018-08-28T02:17:39.137Z,12.19
2018-08-28T02:18:39.137Z,12.06
2018-08-28T02:19:39.106Z,12.08
2018-08-28T02:20:39.085Z,12.06
2018-08-28T02:21:39.068Z,12.04
2018-08-28T02:22:39.052Z,11.96
2018-08-28T02:23:39.033Z,11.99
2018-08-28T02:24:39.013Z,11.99
2018-08-28T02:25:38.996Z,11.97
2018-08-28T02:26:38.972Z,11.97
2018-08-28T02:27:38.956Z,11.99
2018-08-28T02:28:38.935Z,11.94
2018-08-28T02:29:38.916Z,11.83
2018-08-28T02:30:38.906Z,11.85
2018-08-28T02:31:38.879Z,11.86
2018-08-28T02:32:38.864Z,11.82
2018-08-28T02:33:38.892Z,11.83
2018-08-28T02:34:38.827Z,11.75
2018-08-28T02:35:38.813Z,11.68
2018-08-28T02:36:38.791Z,11.68
2018-08-28T02:37:38.765Z,11.71
2018-08-28T02:38:38.746Z,11.83
2018-08-28T02:39:38.727Z,11.89
2018-08-28T02:40:38.715Z,11.97
2018-08-28T02:41:38.697Z,11.90
2018-08-28T02:42:38.673Z,11.96
2018-08-28T02:43:38.656Z,11.94
2018-08-28T02:44:38.633Z,11.87
2018-08-28T02:45:38.620Z,11.82
2018-08-28T02:46:38.603Z,11.70
2018-08-28T02:47:38.589Z,11.82
2018-08-28T02:48:38.564Z,11.83
2018-08-28T02:49:38.540Z,11.75
2018-08-28T02:50:38.527Z,11.68
2018-08-28T02:51:38.509Z,11.68
2018-08-28T02:52:38.481Z,11.74
2018-08-28T02:53:38.468Z,11.62
2018-08-28T02:54:38.446Z,11.61
2018-08-28T02:55:38.430Z,11.56
2018-08-28T02:56:38.410Z,11.59
2018-08-28T02:57:38.385Z,11.59
2018-08-28T02:58:38.376Z,11.56
2018-08-28T02:59:38.350Z,11.61
2018-08-28T03:00:38.338Z,11.56
2018-08-28T03:01:38.321Z,11.56
2018-08-28T03:02:38.294Z,11.57
2018-08-28T03:03:38.276Z,11.52
2018-08-28T03:04:38.254Z,11.44
2018-08-28T03:05:38.238Z,11.43
2018-08-28T03:06:38.228Z,11.28
2018-08-28T03:07:38.210Z,11.20
2018-08-28T03:08:38.180Z,11.17
2018-08-28T03:09:38.160Z,11.16
2018-08-28T03:10:38.142Z,11.24
2018-08-28T03:11:38.137Z,11.27
2018-08-28T03:12:38.109Z,11.29
2018-08-28T03:13:38.094Z,11.27
2018-08-28T03:14:38.075Z,11.25
2018-08-28T03:15:38.096Z,11.25
2018-08-28T03:16:38.027Z,11.25
2018-08-28T03:17:38.007Z,11.24
2018-08-28T03:18:38.000Z,11.21
2018-08-28T03:19:37.969Z,11.24
2018-08-28T03:20:37.960Z,11.14
2018-08-28T03:21:37.930Z,11.07
2018-08-28T03:22:37.930Z,11.16
2018-08-28T03:23:37.910Z,11.19
2018-08-28T03:24:37.878Z,11.11
2018-08-28T03:25:37.859Z,11.09
2018-08-28T03:26:37.849Z,11.14
2018-08-28T03:27:37.821Z,11.10
2018-08-28T03:28:37.808Z,11.07
2018-08-28T03:29:37.786Z,11.06
2018-08-28T03:30:37.766Z,10.95
2018-08-28T03:31:37.734Z,10.99
2018-08-28T03:32:37.721Z,11.06
2018-08-28T03:33:37.705Z,11.09
2018-08-28T03:34:37.711Z,11.10
2018-08-28T03:35:37.662Z,11.14
2018-08-28T03:36:37.643Z,11.20
2018-08-28T03:37:37.624Z,11.25
2018-08-28T03:38:37.602Z,11.36
2018-08-28T03:39:37.582Z,11.34
2018-08-28T03:40:37.570Z,11.31
2018-08-28T03:41:37.547Z,11.28
2018-08-28T03:42:37.528Z,11.19
2018-08-28T03:43:37.506Z,11.13
2018-08-28T03:44:37.531Z,11.10
2018-08-28T03:45:37.478Z,11.09
2018-08-28T03:46:37.459Z,11.06
2018-08-28T03:47:37.429Z,10.95
2018-08-28T03:48:37.413Z,11.01
2018-08-28T03:49:37.387Z,11.03
2018-08-28T03:50:37.368Z,11.03
2018-08-28T03:51:37.349Z,11.01
2018-08-28T03:52:37.336Z,11.07
2018-08-28T03:53:37.324Z,11.16
2018-08-28T03:54:37.292Z,11.17
2018-08-28T03:55:37.276Z,11.24
2018-08-28T03:56:37.274Z,11.21
2018-08-28T03:57:37.245Z,11.20
2018-08-28T03:58:37.224Z,11.28
2018-08-28T03:59:37.195Z,11.03
2018-08-28T04:00:37.180Z,11.02
2018-08-28T04:01:37.164Z,11.03
2018-08-28T04:02:37.138Z,10.88
2018-08-28T04:03:37.129Z,10.78
2018-08-28T04:04:37.097Z,10.83
2018-08-28T04:05:37.081Z,10.74
2018-08-28T04:06:37.073Z,10.71
2018-08-28T04:07:37.039Z,10.71
2018-08-28T04:08:37.028Z,10.83
2018-08-28T04:09:36.998Z,10.78
2018-08-28T04:10:36.993Z,10.77
2018-08-28T04:11:36.966Z,10.81
2018-08-28T04:12:36.956Z,10.88
2018-08-28T04:13:36.922Z,10.80
2018-08-28T04:14:36.919Z,10.83
2018-08-28T04:15:36.887Z,10.76
2018-08-28T04:16:36.865Z,10.68
2018-08-28T04:17:36.842Z,10.70
2018-08-28T04:18:36.827Z,10.70
2018-08-28T04:19:36.811Z,10.60
2018-08-28T04:20:36.792Z,10.62
2018-08-28T04:21:36.766Z,10.51
2018-08-28T04:22:36.833Z,10.55
2018-08-28T04:23:36.723Z,10.51
2018-08-28T04:24:36.708Z,10.52
2018-08-28T04:25:36.696Z,10.47
2018-08-28T04:26:36.675Z,10.53
2018-08-28T04:27:36.650Z,10.44
2018-08-28T04:28:36.640Z,10.37
2018-08-28T04:29:36.614Z,10.44
2018-08-28T04:30:36.607Z,10.53
2018-08-28T04:31:36.585Z,10.52
2018-08-28T04:32:36.554Z,10.56
2018-08-28T04:33:36.528Z,10.66
2018-08-28T04:34:36.510Z,10.74
2018-08-28T04:35:36.507Z,10.70
2018-08-28T04:36:36.488Z,10.66
2018-08-28T04:37:36.449Z,10.51
2018-08-28T04:38:36.433Z,10.47
2018-08-28T04:39:36.414Z,10.53
2018-08-28T04:40:36.397Z,10.44
2018-08-28T04:41:36.369Z,10.30
2018-08-28T04:42:36.350Z,10.26
2018-08-28T04:43:36.341Z,10.30
2018-08-28T04:44:36.314Z,10.25
2018-08-28T04:45:36.292Z,10.28
2018-08-28T04:46:36.279Z,10.34
2018-08-28T04:47:36.260Z,10.37
2018-08-28T04:48:36.296Z,10.37
2018-08-28T04:49:36.218Z,10.44
2018-08-28T04:50:36.193Z,10.43
2018-08-28T04:51:36.180Z,10.40
2018-08-28T04:52:36.161Z,10.43
2018-08-28T04:53:36.138Z,10.39
2018-08-28T04:54:36.127Z,10.40
2018-08-28T04:55:36.102Z,10.44
2018-08-28T04:56:36.083Z,10.42
2018-08-28T04:57:36.064Z,10.40
2018-08-28T04:58:36.038Z,10.33
2018-08-28T04:59:36.026Z,10.39
2018-08-28T05:00:36.013Z,10.43
2018-08-28T05:01:35.981Z,10.47
2018-08-28T05:02:35.971Z,10.51
2018-08-28T05:03:35.967Z,10.47
2018-08-28T05:04:35.928Z,10.47
2018-08-28T05:05:35.894Z,10.44
2018-08-28T05:06:35.884Z,10.43
2018-08-28T05:07:35.862Z,10.40
2018-08-28T05:08:35.849Z,10.37
2018-08-28T05:09:36.284Z,10.36
2018-08-28T05:10:35.802Z,10.36
2018-08-28T05:11:35.799Z,10.42
2018-08-28T05:12:35.776Z,10.37
2018-08-28T05:13:35.750Z,10.37
2018-08-28T05:14:35.731Z,10.40
2018-08-28T05:15:35.711Z,10.37
2018-08-28T05:16:35.689Z,10.52
2018-08-28T05:17:35.668Z,10.51
2018-08-28T05:18:35.647Z,10.63
2018-08-28T05:19:35.622Z,10.55
2018-08-28T05:20:35.617Z,10.51
2018-08-28T05:21:35.603Z,10.60
2018-08-28T05:22:35.581Z,10.62
2018-08-28T05:23:35.545Z,10.71
2018-08-28T05:24:35.542Z,10.80
2018-08-28T05:25:35.528Z,10.84
2018-08-28T05:26:35.503Z,10.86
2018-08-28T05:27:35.490Z,10.91
2018-08-28T05:28:35.462Z,11.03
2018-08-28T05:29:35.442Z,11.09
2018-08-28T05:30:35.495Z,11.06
2018-08-28T05:31:35.405Z,11.09
2018-08-28T05:32:35.391Z,11.03
2018-08-28T05:33:35.352Z,11.10
2018-08-28T05:34:35.339Z,11.07
2018-08-28T05:35:35.319Z,11.11
2018-08-28T05:36:35.303Z,11.07
2018-08-28T05:37:35.290Z,11.10
2018-08-28T05:38:35.255Z,11.10
2018-08-28T05:39:35.248Z,11.10
2018-08-28T05:40:35.220Z,11.13
2018-08-28T05:41:35.197Z,11.24
2018-08-28T05:42:35.178Z,11.24
2018-08-28T05:43:35.182Z,11.27
2018-08-28T05:44:35.152Z,11.27
2018-08-28T05:45:35.139Z,11.21
2018-08-28T05:46:35.115Z,11.36
2018-08-28T05:47:35.114Z,11.32
2018-08-28T05:48:35.073Z,11.36
2018-08-28T05:49:35.102Z,11.47
2018-08-28T05:50:35.038Z,11.59
2018-08-28T05:51:35.005Z,11.54
2018-08-28T05:52:35.009Z,11.68
2018-08-28T05:53:34.976Z,11.64
2018-08-28T05:54:34.956Z,11.77
2018-08-28T05:55:34.952Z,11.82
2018-08-28T05:56:34.929Z,11.82
2018-08-28T05:57:34.906Z,11.93
2018-08-28T05:58:34.890Z,11.99
2018-08-28T05:59:34.861Z,12.01
2018-08-28T06:00:34.850Z,12.15
2018-08-28T06:01:34.823Z,12.12
2018-08-28T06:02:34.803Z,12.15
2018-08-28T06:03:34.842Z,12.23
2018-08-28T06:04:34.771Z,12.27
2018-08-28T06:05:34.769Z,12.31
2018-08-28T06:06:34.740Z,12.41
2018-08-28T06:07:34.716Z,12.49
2018-08-28T06:08:34.699Z,12.46
2018-08-28T06:09:34.676Z,12.49
2018-08-28T06:10:34.658Z,12.66
2018-08-28T06:11:34.638Z,12.69
2018-08-28T06:12:34.625Z,12.71
2018-08-28T06:13:34.626Z,12.71
2018-08-28T06:14:34.644Z,12.77
2018-08-28T06:15:34.577Z,12.78
2018-08-28T06:16:34.562Z,12.87
2018-08-28T06:17:34.546Z,12.95
2018-08-28T06:18:34.511Z,12.88
2018-08-28T06:19:34.505Z,12.92
2018-08-28T06:20:34.502Z,12.99
2018-08-28T06:21:34.463Z,13.04
2018-08-28T06:22:34.441Z,13.15
2018-08-28T06:23:34.425Z,13.17
2018-08-28T06:24:34.406Z,13.27
2018-08-28T06:25:34.396Z,13.38
2018-08-28T06:26:34.415Z,13.43
2018-08-28T06:27:34.358Z,13.47
2018-08-28T06:28:34.332Z,13.54
2018-08-28T06:29:34.339Z,13.62
2018-08-28T06:30:34.302Z,13.71
2018-08-28T06:31:34.289Z,13.76
2018-08-28T06:32:34.261Z,13.83
2018-08-28T06:33:34.254Z,13.92
2018-08-28T06:34:34.236Z,13.96
2018-08-28T06:35:34.244Z,14.04
2018-08-28T06:36:34.213Z,14.10
2018-08-28T06:37:34.181Z,14.12
2018-08-28T06:38:34.168Z,14.17
2018-08-28T06:39:34.154Z,14.38
2018-08-28T06:40:34.139Z,14.32
2018-08-28T06:41:34.118Z,14.35
2018-08-28T06:42:34.108Z,14.43
2018-08-28T06:43:34.091Z,14.50
2018-08-28T06:44:34.074Z,14.61
2018-08-28T06:45:34.067Z,14.75
2018-08-28T06:46:34.032Z,14.67
2018-08-28T06:47:34.013Z,14.86
2018-08-28T06:48:34.009Z,14.71
2018-08-28T06:49:34.010Z,14.88
2018-08-28T06:50:33.965Z,14.95
2018-08-28T06:51:33.960Z,15.03
2018-08-28T06:52:33.933Z,15.13
2018-08-28T06:53:33.933Z,15.08
2018-08-28T06:54:33.905Z,15.24
2018-08-28T06:55:33.880Z,15.31
2018-08-28T06:56:33.884Z,15.43
2018-08-28T06:57:33.855Z,15.56
2018-08-28T06:58:33.829Z,15.61
2018-08-28T06:59:33.813Z,15.74
2018-08-28T07:00:33.810Z,15.82
2018-08-28T07:01:33.800Z,15.84
2018-08-28T07:02:33.852Z,15.96
2018-08-28T07:03:33.752Z,16.04
2018-08-28T07:04:33.740Z,16.00
2018-08-28T07:05:33.740Z,16.09
2018-08-28T07:06:33.707Z,16.12
2018-08-28T07:07:33.688Z,16.26
2018-08-28T07:08:33.678Z,16.20
2018-08-28T07:09:33.664Z,16.22
2018-08-28T07:10:33.644Z,16.35
2018-08-28T07:11:33.632Z,16.42
2018-08-28T07:12:33.620Z,16.49
2018-08-28T07:13:33.613Z,16.45
2018-08-28T07:14:33.589Z,16.50
2018-08-28T07:15:33.588Z,16.48
2018-08-28T07:16:33.555Z,16.56
2018-08-28T07:17:33.540Z,16.62
2018-08-28T07:18:33.578Z,16.68
2018-08-28T07:19:33.514Z,16.78
2018-08-28T07:20:33.498Z,17.04
2018-08-28T07:21:33.485Z,17.13
2018-08-28T07:22:33.478Z,17.14
2018-08-28T07:23:33.479Z,17.43
2018-08-28T07:24:33.446Z,17.48
2018-08-28T07:25:33.480Z,17.59
2018-08-28T07:26:33.408Z,17.85
2018-08-28T07:27:33.395Z,18.02
2018-08-28T07:28:33.386Z,18.06
2018-08-28T07:29:33.395Z,18.33
2018-08-28T07:30:33.352Z,18.36
2018-08-28T07:31:33.347Z,18.46
2018-08-28T07:32:33.319Z,18.55
2018-08-28T07:33:33.326Z,18.86
2018-08-28T07:34:33.318Z,19.11
2018-08-28T07:35:33.280Z,19.31
2018-08-28T07:36:33.274Z,19.39
2018-08-28T07:37:33.307Z,19.75
2018-08-28T07:38:33.248Z,20.02
2018-08-28T07:39:33.236Z,20.28
2018-08-28T07:40:33.226Z,20.58
2018-08-28T07:41:33.216Z,20.81
2018-08-28T07:42:33.194Z,20.95
2018-08-28T07:43:33.192Z,21.16
2018-08-28T07:44:33.178Z,21.30
2018-08-28T07:45:33.156Z,21.71
2018-08-28T07:46:33.146Z,21.98
2018-08-28T07:47:33.140Z,22.34
2018-08-28T07:48:33.129Z,22.75
2018-08-28T07:49:33.119Z,23.04
2018-08-28T07:50:33.104Z,23.42
2018-08-28T07:51:33.097Z,23.75
2018-08-28T07:52:33.097Z,24.10
2018-08-28T07:53:33.072Z,24.17
2018-08-28T07:54:33.049Z,24.53
2018-08-28T07:55:33.046Z,24.68
2018-08-28T07:56:33.055Z,24.64
2018-08-28T07:57:33.018Z,24.77
2018-08-28T07:58:33.018Z,24.64
2018-08-28T07:59:33.005Z,24.44
2018-08-28T08:00:32.992Z,24.64
2018-08-28T08:01:33.083Z,24.83
2018-08-28T08:02:32.988Z,24.75
2018-08-28T08:03:32.966Z,24.68
2018-08-28T08:04:32.959Z,24.88
2018-08-28T08:05:32.950Z,25.32
2018-08-28T08:06:32.926Z,25.35
2018-08-28T08:07:32.945Z,25.22
2018-08-28T08:08:32.920Z,25.07
2018-08-28T08:09:32.908Z,25.13
2018-08-28T08:10:32.914Z,25.22
2018-08-28T08:11:32.885Z,25.30
2018-08-28T08:12:32.891Z,25.09
2018-08-28T08:13:32.875Z,24.85
2018-08-28T08:14:32.859Z,24.73
2018-08-28T08:15:32.863Z,24.63
2018-08-28T08:16:32.853Z,24.64
2018-08-28T08:17:32.833Z,24.94
2018-08-28T08:18:32.857Z,25.16
2018-08-28T08:19:32.814Z,25.59
2018-08-28T08:20:32.801Z,25.79
2018-08-28T08:21:32.797Z,25.89
2018-08-28T08:22:32.789Z,25.90
2018-08-28T08:23:32.782Z,25.72
2018-08-28T08:24:32.773Z,25.86
2018-08-28T08:25:32.762Z,25.34
2018-08-28T08:26:32.754Z,25.09
2018-08-28T08:27:32.772Z,25.05
2018-08-28T08:28:32.734Z,25.37
2018-08-28T08:29:32.734Z,25.27
2018-08-28T08:30:32.725Z,25.15
2018-08-28T08:31:32.712Z,25.15
2018-08-28T08:32:32.715Z,25.01
2018-08-28T08:33:32.689Z,24.85
2018-08-28T08:34:32.680Z,24.79
2018-08-28T08:35:32.674Z,24.90
2018-08-28T08:36:32.683Z,24.85
2018-08-28T08:37:32.660Z,25.16
2018-08-28T08:38:32.683Z,25.17
2018-08-28T08:39:32.638Z,25.57
2018-08-28T08:40:32.636Z,25.52
2018-08-28T08:41:32.622Z,25.31
2018-08-28T08:42:32.639Z,25.35
2018-08-28T08:43:32.630Z,25.54
2018-08-28T08:44:32.600Z,26.02
2018-08-28T08:45:32.598Z,25.71
2018-08-28T08:46:32.604Z,25.94
2018-08-28T08:47:32.584Z,26.08
2018-08-28T08:48:32.572Z,25.99
2018-08-28T08:49:32.566Z,26.20
2018-08-28T08:50:32.568Z,26.64
2018-08-28T08:51:32.542Z,26.69
2018-08-28T08:52:32.552Z,26.28
2018-08-28T08:53:32.539Z,25.98
2018-08-28T08:54:32.528Z,26.08
2018-08-28T08:55:32.521Z,26.28
2018-08-28T08:56:32.511Z,26.31
2018-08-28T08:57:32.583Z,26.39
2018-08-28T08:58:32.501Z,26.09
2018-08-28T08:59:32.485Z,25.82
2018-08-28T09:00:32.477Z,26.27
2018-08-28T09:01:32.475Z,25.69
2018-08-28T09:02:32.469Z,24.87
2018-08-28T09:03:32.459Z,24.22
2018-08-28T09:04:32.460Z,23.72
2018-08-28T09:05:32.457Z,23.55
2018-08-28T09:06:32.444Z,23.58
2018-08-28T09:07:32.425Z,24.38
2018-08-28T09:08:32.429Z,25.12
2018-08-28T09:09:32.408Z,25.72
2018-08-28T09:10:32.406Z,26.06
2018-08-28T09:11:32.396Z,25.86
2018-08-28T09:12:32.383Z,25.75
2018-08-28T09:13:32.476Z,26.04
2018-08-28T09:14:32.371Z,26.06
2018-08-28T09:15:32.358Z,25.87
2018-08-28T09:16:32.352Z,26.40
2018-08-28T09:17:32.396Z,26.58
2018-08-28T09:18:32.342Z,26.73
2018-08-28T09:19:32.327Z,26.79
2018-08-28T09:20:32.326Z,26.86
2018-08-28T09:21:32.347Z,26.49
2018-08-28T09:22:32.305Z,26.44
2018-08-28T09:23:32.297Z,26.28
2018-08-28T09:24:32.284Z,26.46
2018-08-28T09:25:32.282Z,26.87
2018-08-28T09:26:32.281Z,26.91
2018-08-28T09:27:32.272Z,26.86
2018-08-28T09:28:32.348Z,26.61
2018-08-28T09:29:32.255Z,26.50
2018-08-28T09:30:32.253Z,26.43
2018-08-28T09:31:32.275Z,26.49
2018-08-28T09:32:32.230Z,26.44
2018-08-28T09:33:32.217Z,26.64
2018-08-28T09:34:32.214Z,26.72
2018-08-28T09:35:32.208Z,26.62
2018-08-28T09:36:32.199Z,26.58
2018-08-28T09:37:32.208Z,26.67
2018-08-28T09:38:32.241Z,27.16
2018-08-28T09:39:32.182Z,27.47
2018-08-28T09:40:32.177Z,27.33
2018-08-28T09:41:32.173Z,27.10
2018-08-28T09:42:32.160Z,26.87
2018-08-28T09:43:32.141Z,27.06
2018-08-28T09:44:32.138Z,26.89
2018-08-28T09:45:32.135Z,26.64
2018-08-28T09:46:32.126Z,26.59
2018-08-28T09:47:32.112Z,26.61
2018-08-28T09:48:32.126Z,26.89
2018-08-28T09:49:32.123Z,27.01
2018-08-28T09:50:32.118Z,26.67
2018-08-28T09:51:32.099Z,26.35
2018-08-28T09:52:32.078Z,26.68
2018-08-28T09:53:32.068Z,26.89
2018-08-28T09:54:32.066Z,27.14
2018-08-28T09:55:32.055Z,27.04
2018-08-28T09:56:32.085Z,26.67
2018-08-28T09:57:32.049Z,26.89
2018-08-28T09:58:32.041Z,26.77
2018-08-28T09:59:32.033Z,26.64
2018-08-28T10:00:32.030Z,26.77
2018-08-28T10:01:32.014Z,26.99
2018-08-28T10:02:32.011Z,26.87
2018-08-28T10:03:32.022Z,27.33
2018-08-28T10:04:32.001Z,27.50
2018-08-28T10:05:31.988Z,27.35
2018-08-28T10:06:31.999Z,27.61
2018-08-28T10:07:31.979Z,27.47
2018-08-28T10:08:31.979Z,27.58
2018-08-28T10:09:31.968Z,27.51
2018-08-28T10:10:31.961Z,27.26
2018-08-28T10:11:31.956Z,27.42
2018-08-28T10:12:31.953Z,27.59
2018-08-28T10:13:31.963Z,27.46
2018-08-28T10:14:31.951Z,27.53
2018-08-28T10:15:31.934Z,27.42
2018-08-28T10:16:31.932Z,27.19
2018-08-28T10:17:31.993Z,26.91
2018-08-28T10:18:31.920Z,26.68
2018-08-28T10:19:31.927Z,26.27
2018-08-28T10:20:31.908Z,26.46
2018-08-28T10:21:31.898Z,26.64
2018-08-28T10:22:31.894Z,26.89
2018-08-28T10:23:31.892Z,26.80
2018-08-28T10:24:31.875Z,26.64
2018-08-28T10:25:31.872Z,26.83
2018-08-28T10:26:31.882Z,27.23
2018-08-28T10:27:31.885Z,27.23
2018-08-28T10:28:31.869Z,27.31
2018-08-28T10:29:31.859Z,27.50
2018-08-28T10:30:31.943Z,27.36
2018-08-28T10:31:31.849Z,27.10
2018-08-28T10:32:31.888Z,26.80
2018-08-28T10:33:31.837Z,26.79
2018-08-28T10:34:31.837Z,26.64
2018-08-28T10:35:31.827Z,26.64
2018-08-28T10:36:31.824Z,26.49
2018-08-28T10:37:31.814Z,26.68
2018-08-28T10:38:31.815Z,26.64
2018-08-28T10:39:31.808Z,26.47
2018-08-28T10:40:31.805Z,26.68
2018-08-28T10:41:31.799Z,26.81
2018-08-28T10:42:31.802Z,26.42
2018-08-28T10:43:31.800Z,26.44
2018-08-28T10:44:31.789Z,26.35
2018-08-28T10:45:31.782Z,26.44
2018-08-28T10:46:31.863Z,26.49
2018-08-28T10:47:31.776Z,26.92
2018-08-28T10:48:31.776Z,27.17
2018-08-28T10:49:31.769Z,27.35
2018-08-28T10:50:31.773Z,27.43
2018-08-28T10:51:31.766Z,27.54
2018-08-28T10:52:31.766Z,27.48
2018-08-28T10:53:31.760Z,27.46
2018-08-28T10:54:31.757Z,27.57
2018-08-28T10:55:31.765Z,27.89
2018-08-28T10:56:31.747Z,27.96
2018-08-28T10:57:31.747Z,28.10
2018-08-28T10:58:31.797Z,28.01
2018-08-28T10:59:31.747Z,27.26
2018-08-28T11:00:31.732Z,27.29
2018-08-28T11:01:31.734Z,27.41
2018-08-28T11:02:31.729Z,27.33
2018-08-28T11:03:31.731Z,27.01
2018-08-28T11:04:31.727Z,27.06
2018-08-28T11:05:31.725Z,26.98
2018-08-28T11:06:31.719Z,26.92
2018-08-28T11:07:31.719Z,27.23
2018-08-28T11:08:31.729Z,27.47
2018-08-28T11:09:31.712Z,27.51
2018-08-28T11:10:31.716Z,27.46
2018-08-28T11:11:31.716Z,27.58
2018-08-28T11:12:31.716Z,27.66
2018-08-28T11:13:31.706Z,27.59
2018-08-28T11:14:31.704Z,27.32
2018-08-28T11:15:31.709Z,27.36
2018-08-28T11:16:31.710Z,27.51
2018-08-28T11:17:31.703Z,27.59
2018-08-28T11:18:31.705Z,27.42
2018-08-28T11:19:31.703Z,27.23
2018-08-28T11:20:31.710Z,27.19
2018-08-28T11:21:31.697Z,26.46
2018-08-28T11:22:31.697Z,25.94
2018-08-28T11:23:31.699Z,25.75
2018-08-28T11:24:31.694Z,25.86
2018-08-28T11:25:31.696Z,25.93
2018-08-28T11:26:31.694Z,25.82
2018-08-28T11:27:31.697Z,25.86
2018-08-28T11:28:31.690Z,25.94
2018-08-28T11:29:31.694Z,26.21
2018-08-28T11:30:31.690Z,26.39
2018-08-28T11:31:31.848Z,26.87
2018-08-28T11:32:31.709Z,27.19
2018-08-28T11:33:31.685Z,27.05
2018-08-28T11:34:31.685Z,26.99
2018-08-28T11:35:31.741Z,27.14
2018-08-28T11:36:31.684Z,26.95
2018-08-28T11:37:31.684Z,26.84
2018-08-28T11:38:31.712Z,26.77
2018-08-28T11:39:31.685Z,26.74
2018-08-28T11:40:31.684Z,26.62
2018-08-28T11:41:31.681Z,26.73
2018-08-28T11:42:31.687Z,26.89
2018-08-28T11:43:31.684Z,27.16
2018-08-28T11:44:31.688Z,27.20
2018-08-28T11:45:31.703Z,27.20
2018-08-28T11:46:31.687Z,26.87
2018-08-28T11:47:31.685Z,26.94
2018-08-28T11:48:31.691Z,26.84
2018-08-28T11:49:31.685Z,26.94
2018-08-28T11:50:31.681Z,26.87
2018-08-28T11:51:31.691Z,26.86
2018-08-28T11:52:31.748Z,27.05
2018-08-28T11:53:31.691Z,27.16
2018-08-28T11:54:31.697Z,27.06
2018-08-28T11:55:31.688Z,27.04
2018-08-28T11:56:31.690Z,27.21
2018-08-28T11:57:31.694Z,27.16
2018-08-28T11:58:31.691Z,27.06
2018-08-28T11:59:31.700Z,27.04
2018-08-28T12:00:31.697Z,27.04
2018-08-28T12:01:31.697Z,26.94
2018-08-28T12:02:31.694Z,26.94
2018-08-28T12:03:31.703Z,27.20
2018-08-28T12:04:31.697Z,27.32
2018-08-28T12:05:31.854Z,27.57
2018-08-28T12:06:31.715Z,27.57
2018-08-28T12:07:31.713Z,27.47
2018-08-28T12:08:31.718Z,27.47
2018-08-28T12:09:31.703Z,27.61
2018-08-28T12:10:31.710Z,27.69
2018-08-28T12:11:31.707Z,27.53
2018-08-28T12:12:31.719Z,27.28
2018-08-28T12:13:31.711Z,27.20
2018-08-28T12:14:31.720Z,27.17
2018-08-28T12:15:31.720Z,27.14
2018-08-28T12:16:31.723Z,27.35
2018-08-28T12:17:31.723Z,27.42
2018-08-28T12:18:31.726Z,27.51
2018-08-28T12:19:31.728Z,27.50
2018-08-28T12:20:31.848Z,27.24
2018-08-28T12:21:31.726Z,27.41
2018-08-28T12:22:31.732Z,27.47
2018-08-28T12:23:31.740Z,27.50
2018-08-28T12:24:31.736Z,27.61
2018-08-28T12:25:31.735Z,27.61
2018-08-28T12:26:31.787Z,27.84
2018-08-28T12:27:31.735Z,28.03
2018-08-28T12:28:31.770Z,28.21
2018-08-28T12:29:31.804Z,28.07
2018-08-28T12:30:31.748Z,27.89
2018-08-28T12:31:31.746Z,27.89
2018-08-28T12:32:31.764Z,27.51
2018-08-28T12:33:31.755Z,27.38
2018-08-28T12:34:31.774Z,27.26
2018-08-28T12:35:31.774Z,27.01
2018-08-28T12:36:31.770Z,26.96
2018-08-28T12:37:31.771Z,27.17
2018-08-28T12:38:31.777Z,27.51
2018-08-28T12:39:31.768Z,27.71
2018-08-28T12:40:31.770Z,27.86
2018-08-28T12:41:31.783Z,27.70
2018-08-28T12:42:31.791Z,27.74
2018-08-28T12:43:31.777Z,27.94
2018-08-28T12:44:31.794Z,28.04
2018-08-28T12:45:31.784Z,28.14
2018-08-28T12:46:31.797Z,27.94
2018-08-28T12:47:31.787Z,27.91
2018-08-28T12:48:31.809Z,27.88
2018-08-28T12:49:31.786Z,27.91
2018-08-28T12:50:31.790Z,27.71
2018-08-28T12:51:31.897Z,27.21
2018-08-28T12:52:31.792Z,27.33